createdAt,value
2023-05-23T00:01:28.040Z,11.85
2023-05-23T00:06:29.642Z,13.85
2023-05-23T00:11:31.334Z,11.82
2023-05-23T00:16:33.131Z,11.38
2023-05-23T00:21:34.724Z,12.73
2023-05-23T00:26:36.685Z,10.65
2023-05-23T00:31:38.461Z,11.98
2023-05-23T00:36:40.479Z,11.57
2023-05-23T00:41:42.053Z,11.95
2023-05-23T00:46:45.513Z,12.02
2023-05-23T00:51:48.409Z,12.68
2023-05-23T00:56:50.621Z,15.90
2023-05-23T01:01:55.822Z,14.75
2023-05-23T01:06:57.786Z,14.98
2023-05-23T01:12:17.694Z,14.32
2023-05-23T01:17:26.690Z,16.60
2023-05-23T01:22:41.628Z,15.13
2023-05-23T01:27:51.197Z,13.98
2023-05-23T01:32:55.874Z,10.90
2023-05-23T01:37:57.736Z,11.02
2023-05-23T01:42:59.461Z,9.05
2023-05-23T01:48:04.083Z,11.98
2023-05-23T01:53:06.983Z,9.38
2023-05-23T01:58:09.098Z,15.30
2023-05-23T02:03:10.910Z,11.75
2023-05-23T02:08:12.538Z,15.77
2023-05-23T02:13:14.105Z,10.68
2023-05-23T02:18:15.686Z,9.88
2023-05-23T02:23:18.195Z,7.10
2023-05-23T02:28:20.261Z,7.05
2023-05-23T02:33:24.194Z,8.13
2023-05-23T02:38:26.708Z,5.45
2023-05-23T02:43:28.597Z,6.45
2023-05-23T02:48:30.256Z,5.55
2023-05-23T02:53:32.066Z,5.43
2023-05-23T02:58:33.790Z,7.60
2023-05-23T03:03:35.514Z,6.25
2023-05-23T03:08:37.190Z,7.97
2023-05-23T03:13:39.776Z,6.43
2023-05-23T03:18:43.233Z,5.65
2023-05-23T03:23:44.843Z,7.38
2023-05-23T03:28:46.467Z,7.82
2023-05-23T03:33:48.011Z,6.18
2023-05-23T03:38:50.828Z,8.82
2023-05-23T03:43:52.799Z,8.10
2023-05-23T03:48:54.559Z,7.20
2023-05-23T03:53:57.422Z,11.65
2023-05-23T03:58:59.413Z,10.38
2023-05-23T04:04:01.341Z,12.82
2023-05-23T04:09:07.492Z,8.83
2023-05-23T04:14:13.787Z,13.60
2023-05-23T04:19:16.362Z,10.73
2023-05-23T04:24:18.491Z,13.50
2023-05-23T04:29:20.274Z,15.07
2023-05-23T04:34:23.331Z,14.07
2023-05-23T04:39:24.965Z,10.32
2023-05-23T04:44:52.391Z,8.25
2023-05-23T04:49:58.976Z,7.90
2023-05-23T04:55:01.108Z,9.68
2023-05-23T05:00:06.561Z,9.88
2023-05-23T05:05:10.133Z,12.85
2023-05-23T05:10:11.865Z,7.13
2023-05-23T05:15:13.637Z,9.65
2023-05-23T05:20:17.074Z,8.50
2023-05-23T05:25:18.820Z,9.90
2023-05-23T05:30:20.640Z,8.90
2023-05-23T05:35:33.129Z,10.48
2023-05-23T05:40:34.989Z,11.90
2023-05-23T05:45:37.351Z,11.50
2023-05-23T05:50:39.501Z,9.77
2023-05-23T05:55:42.189Z,9.02
2023-05-23T06:00:44.094Z,9.63
2023-05-23T06:05:45.744Z,10.68
2023-05-23T06:10:47.340Z,14.48
2023-05-23T06:15:49.112Z,9.05
2023-05-23T06:20:50.709Z,8.85
2023-05-23T06:25:53.676Z,11.30
2023-05-23T06:30:55.468Z,11.05
2023-05-23T06:35:57.038Z,10.02
2023-05-23T06:40:58.635Z,11.63
2023-05-23T06:46:00.991Z,10.80
2023-05-23T06:51:03.874Z,16.17
2023-05-23T06:56:06.098Z,15.70
2023-05-23T07:01:14.970Z,10.38
2023-05-23T07:11:23.070Z,13.18
2023-05-23T07:21:38.335Z,11.88
2023-05-23T07:26:41.696Z,10.75
2023-05-23T07:31:43.504Z,11.27
2023-05-23T07:36:47.203Z,10.57
2023-05-23T07:41:50.305Z,9.52
2023-05-23T07:46:53.473Z,11.10
2023-05-23T07:51:56.268Z,9.52
2023-05-23T07:56:58.098Z,8.10
2023-05-23T08:02:00.520Z,10.05
2023-05-23T08:07:05.896Z,10.45
2023-05-23T08:12:25.752Z,10.15
2023-05-23T08:17:36.286Z,11.48
2023-05-23T08:22:38.511Z,8.23
2023-05-23T08:27:40.836Z,9.45
2023-05-23T08:33:05.780Z,10.18
2023-05-23T08:38:09.626Z,9.55
2023-05-23T08:43:16.681Z,14.68
2023-05-23T08:48:20.400Z,10.32
2023-05-23T08:53:27.248Z,8.75
2023-05-23T08:58:36.229Z,8.10
2023-05-23T09:03:39.314Z,8.50
2023-05-23T09:08:51.036Z,11.45
2023-05-23T09:13:55.174Z,10.13
2023-05-23T09:18:58.464Z,10.75
2023-05-23T09:24:02.858Z,9.05
2023-05-23T09:29:06.378Z,10.45
2023-05-23T09:34:08.114Z,11.77
2023-05-23T09:39:12.004Z,12.38
2023-05-23T09:44:14.065Z,11.65
2023-05-23T09:49:17.525Z,11.00
2023-05-23T09:54:20.702Z,12.32
2023-05-23T09:59:23.392Z,13.93
2023-05-23T10:04:26.056Z,10.80
2023-05-23T10:09:33.039Z,14.13
2023-05-23T10:14:40.770Z,17.05
2023-05-23T10:20:01.012Z,23.17
2023-05-23T10:25:06.179Z,37.33
2023-05-23T10:30:08.809Z,34.78
2023-05-23T10:35:25.067Z,31.35
2023-05-23T10:40:26.675Z,24.92
2023-05-23T10:45:28.533Z,20.15
2023-05-23T10:50:35.308Z,13.50
2023-05-23T10:55:37.642Z,11.45
2023-05-23T11:00:39.649Z,11.20
2023-05-23T11:05:47.919Z,9.90
2023-05-23T11:10:53.374Z,14.95
2023-05-23T11:15:55.055Z,9.65
2023-05-23T11:21:00.855Z,9.15
2023-05-23T11:31:04.109Z,8.98
2023-05-23T11:36:07.254Z,10.63
2023-05-23T11:41:08.821Z,12.52
2023-05-23T11:46:10.604Z,11.93
2023-05-23T11:51:12.595Z,9.85
2023-05-23T11:56:15.124Z,10.40
2023-05-23T12:01:16.800Z,16.27
2023-05-23T12:06:22.865Z,13.48
2023-05-23T12:11:24.451Z,14.18
2023-05-23T12:16:27.962Z,11.88
2023-05-23T12:21:46.153Z,12.35
2023-05-23T12:26:50.797Z,15.68
2023-05-23T12:31:52.815Z,16.60
2023-05-23T12:37:18.107Z,15.60
2023-05-23T12:42:20.993Z,14.13
2023-05-23T12:47:22.756Z,13.90
2023-05-23T12:52:24.350Z,13.45
2023-05-23T12:57:25.890Z,13.50
2023-05-23T13:02:28.499Z,11.60
2023-05-23T13:07:30.759Z,14.80
2023-05-23T13:12:32.329Z,17.80
2023-05-23T13:17:34.066Z,13.27
2023-05-23T13:22:35.689Z,16.17
2023-05-23T13:27:37.409Z,13.75
2023-05-23T13:32:39.069Z,18.90
2023-05-23T13:37:40.831Z,13.20
2023-05-23T13:42:42.451Z,10.95
2023-05-23T13:47:44.524Z,9.98
2023-05-23T13:52:49.015Z,12.93
2023-05-23T13:57:51.911Z,9.03
2023-05-23T14:02:53.531Z,10.38
2023-05-23T14:07:55.194Z,12.98
2023-05-23T14:12:56.922Z,13.95
2023-05-23T14:17:58.463Z,10.27
2023-05-23T14:23:00.138Z,13.45
2023-05-23T14:28:01.761Z,11.38
2023-05-23T14:33:03.526Z,11.23
2023-05-23T14:38:05.190Z,11.43
2023-05-23T14:43:06.839Z,13.57
2023-05-23T14:48:10.231Z,8.75
2023-05-23T14:53:11.878Z,12.65
2023-05-23T14:58:13.592Z,12.98
2023-05-23T15:03:15.733Z,10.32
2023-05-23T15:08:17.636Z,11.20
2023-05-23T15:13:19.275Z,12.77
2023-05-23T15:18:35.737Z,8.95
2023-05-23T15:23:41.956Z,11.40
2023-05-23T15:28:43.754Z,10.25
2023-05-23T15:33:45.542Z,16.95
2023-05-23T15:38:47.314Z,15.48
2023-05-23T15:43:48.862Z,13.48
2023-05-23T15:48:50.456Z,12.27
2023-05-23T15:58:56.760Z,11.35
2023-05-23T16:03:58.469Z,13.82
2023-05-23T16:09:00.159Z,13.07
2023-05-23T16:14:01.900Z,12.52
2023-05-23T16:19:03.686Z,15.40
2023-05-23T16:24:05.571Z,15.52
2023-05-23T16:29:07.230Z,13.40
2023-05-23T16:34:08.798Z,13.35
2023-05-23T16:39:11.158Z,14.25
2023-05-23T16:44:13.903Z,15.45
2023-05-23T16:49:15.505Z,11.85
2023-05-23T16:54:17.089Z,11.20
2023-05-23T16:59:18.767Z,13.02
2023-05-23T17:04:20.581Z,11.10
2023-05-23T17:09:22.607Z,13.88
2023-05-23T17:14:24.243Z,9.80
2023-05-23T17:19:26.122Z,9.18
2023-05-23T17:24:27.762Z,10.60
2023-05-23T17:29:29.330Z,8.73
2023-05-23T17:34:30.900Z,13.30
2023-05-23T17:39:32.489Z,8.80
2023-05-23T17:44:34.184Z,10.65
2023-05-23T17:49:35.768Z,9.07
2023-05-23T17:54:37.426Z,9.95
2023-05-23T17:59:38.993Z,9.45
2023-05-23T18:04:41.990Z,11.35
2023-05-23T18:09:43.883Z,9.75
2023-05-23T18:14:45.597Z,13.50
2023-05-23T18:19:47.226Z,15.20
2023-05-23T18:24:48.848Z,9.18
2023-05-23T18:29:50.445Z,12.32
2023-05-23T18:34:52.058Z,11.52
2023-05-23T18:39:54.049Z,9.70
2023-05-23T18:44:55.620Z,7.57
2023-05-23T18:49:57.250Z,7.75
2023-05-23T18:54:58.818Z,7.07
2023-05-23T19:00:00.592Z,9.77
2023-05-23T19:05:02.535Z,8.52
2023-05-23T19:10:05.161Z,8.90
2023-05-23T19:15:09.793Z,9.00
2023-05-23T19:20:11.890Z,9.70
2023-05-23T19:25:13.570Z,11.27
2023-05-23T19:30:15.267Z,8.05
2023-05-23T19:35:17.383Z,4.70
2023-05-23T19:40:19.253Z,8.07
2023-05-23T19:45:20.864Z,10.48
2023-05-23T19:50:22.499Z,9.63
2023-05-23T19:55:24.150Z,8.30
2023-05-23T20:00:25.889Z,8.00
2023-05-23T20:05:27.472Z,15.45
2023-05-23T20:10:30.258Z,12.15
2023-05-23T20:20:40.206Z,8.52
2023-05-23T20:25:42.099Z,7.93
2023-05-23T20:30:43.807Z,7.43
2023-05-23T20:35:45.555Z,10.85
2023-05-23T20:40:47.122Z,6.82
2023-05-23T20:45:48.713Z,9.63
2023-05-23T20:50:50.330Z,7.93
2023-05-23T20:55:52.246Z,8.68
2023-05-23T21:00:53.960Z,5.82
2023-05-23T21:05:55.513Z,9.05
2023-05-23T21:10:57.084Z,7.00
2023-05-23T21:15:58.711Z,10.32
2023-05-23T21:21:00.277Z,13.70
2023-05-23T21:26:01.959Z,13.63
2023-05-23T21:31:03.710Z,9.73
2023-05-23T21:36:05.421Z,11.70
2023-05-23T21:41:07.063Z,8.02
2023-05-23T21:46:08.745Z,6.43
2023-05-23T21:51:10.470Z,8.90
2023-05-23T21:56:12.048Z,12.85
2023-05-23T22:01:14.185Z,9.38
2023-05-23T22:06:15.890Z,10.18
2023-05-23T22:11:17.533Z,11.23
2023-05-23T22:16:19.152Z,12.23
2023-05-23T22:21:20.727Z,7.00
2023-05-23T22:26:22.319Z,7.88
2023-05-23T22:31:24.383Z,9.60
2023-05-23T22:36:26.221Z,10.18
2023-05-23T22:41:28.351Z,10.07
2023-05-23T22:46:29.952Z,12.88
2023-05-23T22:51:31.491Z,8.57
2023-05-23T22:56:33.155Z,8.38
2023-05-23T23:01:34.917Z,11.75
2023-05-23T23:06:36.718Z,12.13
2023-05-23T23:11:38.352Z,12.43
2023-05-23T23:16:39.916Z,8.57
2023-05-23T23:21:41.495Z,7.80
2023-05-23T23:26:43.261Z,9.93
2023-05-23T23:31:44.901Z,9.15
2023-05-23T23:36:46.530Z,9.82
2023-05-23T23:41:48.066Z,15.73
2023-05-23T23:46:49.732Z,5.97
2023-05-23T23:51:51.383Z,15.18
2023-05-23T23:56:52.973Z,10.88
